createdAt,value
2023-04-01T00:01:01.483Z,6.82
2023-04-01T00:03:30.678Z,6.82
2023-04-01T00:05:59.789Z,6.81
2023-04-01T00:08:27.976Z,6.80
2023-04-01T00:10:57.480Z,6.79
2023-04-01T00:13:26.855Z,6.79
2023-04-01T00:15:56.208Z,6.78
2023-04-01T00:18:24.823Z,6.78
2023-04-01T00:20:52.946Z,6.78
2023-04-01T00:23:26.573Z,6.80
2023-04-01T00:25:54.899Z,6.80
2023-04-01T00:28:23.040Z,6.81
2023-04-01T00:30:52.698Z,6.81
2023-04-01T00:33:21.938Z,6.79
2023-04-01T00:36:18.099Z,6.76
2023-04-01T00:38:47.066Z,6.74
2023-04-01T00:41:16.775Z,6.75
2023-04-01T00:43:47.038Z,6.78
2023-04-01T00:46:15.652Z,6.79
2023-04-01T00:48:51.511Z,6.78
2023-04-01T00:51:26.855Z,6.76
2023-04-01T00:53:56.932Z,6.75
2023-04-01T00:56:29.217Z,6.71
2023-04-01T00:58:59.315Z,6.67
2023-04-01T01:01:28.097Z,6.63
2023-04-01T01:03:57.031Z,6.56
2023-04-01T01:06:26.262Z,6.49
2023-04-01T01:09:00.503Z,6.38
2023-04-01T01:11:43.737Z,6.27
2023-04-01T01:14:42.345Z,6.17
2023-04-01T01:17:15.717Z,6.04
2023-04-01T01:20:15.513Z,5.92
2023-04-01T01:22:57.228Z,5.81
2023-04-01T01:25:43.144Z,5.74
2023-04-01T01:28:13.599Z,5.67
2023-04-01T01:30:48.375Z,5.62
2023-04-01T01:33:17.386Z,5.56
2023-04-01T01:35:55.504Z,5.53
2023-04-01T01:38:24.517Z,5.55
2023-04-01T01:41:01.420Z,5.60
2023-04-01T01:43:34.729Z,5.64
2023-04-01T01:46:04.552Z,5.69
2023-04-01T01:48:35.409Z,5.76
2023-04-01T01:51:05.187Z,5.81
2023-04-01T01:53:33.355Z,5.84
2023-04-01T01:56:02.666Z,5.85
2023-04-01T01:58:44.778Z,5.82
2023-04-01T02:01:16.696Z,5.80
2023-04-01T02:03:46.245Z,5.82
2023-04-01T02:06:16.259Z,5.86
2023-04-01T02:08:53.040Z,5.85
2023-04-01T02:11:23.970Z,5.84
2023-04-01T02:14:02.641Z,5.83
2023-04-01T02:16:38.413Z,5.83
2023-04-01T02:19:08.530Z,5.79
2023-04-01T02:21:37.847Z,5.74
2023-04-01T02:24:07.028Z,5.72
2023-04-01T02:26:37.700Z,5.74
2023-04-01T02:29:07.280Z,5.81
2023-04-01T02:31:35.922Z,5.86
2023-04-01T02:34:04.609Z,5.91
2023-04-01T02:36:33.181Z,5.92
2023-04-01T02:39:03.603Z,5.94
2023-04-01T02:41:32.485Z,6.02
2023-04-01T02:44:00.794Z,6.08
2023-04-01T02:46:30.064Z,6.11
2023-04-01T02:48:58.275Z,6.12
2023-04-01T02:51:32.184Z,6.13
2023-04-01T02:54:01.415Z,6.18
2023-04-01T02:56:30.296Z,6.21
2023-04-01T02:58:58.557Z,6.17
2023-04-01T03:01:26.855Z,6.14
2023-04-01T03:03:55.009Z,6.12
2023-04-01T03:06:23.289Z,6.09
2023-04-01T03:08:51.612Z,6.07
2023-04-01T03:11:19.893Z,6.06
2023-04-01T03:13:52.449Z,6.07
2023-04-01T03:16:21.695Z,6.12
2023-04-01T03:18:53.727Z,6.20
2023-04-01T03:21:23.988Z,6.24
2023-04-01T03:23:52.412Z,6.27
2023-04-01T03:26:21.030Z,6.28
2023-04-01T03:28:50.271Z,6.26
2023-04-01T03:31:19.053Z,6.19
2023-04-01T03:33:51.325Z,6.10
2023-04-01T03:36:19.690Z,6.06
2023-04-01T03:38:48.582Z,6.01
2023-04-01T03:41:19.104Z,5.94
2023-04-01T03:43:47.385Z,5.93
2023-04-01T03:46:19.776Z,5.91
2023-04-01T03:48:48.155Z,5.94
2023-04-01T03:51:17.980Z,5.99
2023-04-01T03:53:46.983Z,6.04
2023-04-01T03:56:15.293Z,6.05
2023-04-01T03:58:43.536Z,6.03
2023-04-01T04:01:30.693Z,6.05
2023-04-01T04:04:00.440Z,6.08
2023-04-01T04:06:33.786Z,6.16
2023-04-01T04:09:02.380Z,6.30
2023-04-01T04:11:31.983Z,6.41
2023-04-01T04:14:00.556Z,6.49
2023-04-01T04:16:29.136Z,6.59
2023-04-01T04:19:03.054Z,6.66
2023-04-01T04:21:34.304Z,6.71
2023-04-01T04:24:02.737Z,6.77
2023-04-01T04:26:38.442Z,6.92
2023-04-01T04:29:06.681Z,7.07
2023-04-01T04:31:39.297Z,7.17
2023-04-01T04:34:09.417Z,7.25
2023-04-01T04:36:37.824Z,7.37
2023-04-01T04:39:06.277Z,7.47
2023-04-01T04:41:37.518Z,7.58
2023-04-01T04:44:12.195Z,7.64
2023-04-01T04:46:42.412Z,7.71
2023-04-01T04:49:14.099Z,7.77
2023-04-01T04:51:42.358Z,7.75
2023-04-01T04:54:10.982Z,7.75
2023-04-01T04:56:54.421Z,7.81
2023-04-01T04:59:23.475Z,7.88
2023-04-01T05:02:05.887Z,8.03
2023-04-01T05:04:37.867Z,8.18
2023-04-01T05:07:07.301Z,8.33
2023-04-01T05:09:40.005Z,8.43
2023-04-01T05:12:09.094Z,8.53
2023-04-01T05:14:57.575Z,8.62
2023-04-01T05:17:26.921Z,8.70
2023-04-01T05:19:56.048Z,8.81
2023-04-01T05:22:24.792Z,8.96
2023-04-01T05:24:55.511Z,9.08
2023-04-01T05:27:24.403Z,9.19
2023-04-01T05:29:54.627Z,9.27
2023-04-01T05:32:42.450Z,9.33
2023-04-01T05:35:11.460Z,9.34
2023-04-01T05:37:39.665Z,9.33
2023-04-01T05:40:08.580Z,9.38
2023-04-01T05:42:38.367Z,9.38
2023-04-01T05:45:07.319Z,9.33
2023-04-01T05:47:53.929Z,9.28
2023-04-01T05:50:22.150Z,9.26
2023-04-01T05:52:50.992Z,9.30
2023-04-01T05:55:19.391Z,9.39
2023-04-01T05:57:49.582Z,9.50
2023-04-01T06:00:18.012Z,9.58
2023-04-01T06:02:48.735Z,9.63
2023-04-01T06:05:23.804Z,9.66
2023-04-01T06:07:57.174Z,9.76
2023-04-01T06:10:26.949Z,9.89
2023-04-01T06:12:55.071Z,9.95
2023-04-01T06:15:46.962Z,9.97
2023-04-01T06:18:34.896Z,10.00
2023-04-01T06:21:06.107Z,10.05
2023-04-01T06:23:50.990Z,10.03
2023-04-01T06:26:22.316Z,9.98
2023-04-01T06:29:15.581Z,9.94
2023-04-01T06:32:02.660Z,9.94
2023-04-01T06:34:35.952Z,9.94
2023-04-01T06:37:13.638Z,9.99
2023-04-01T06:39:46.448Z,9.97
2023-04-01T06:42:14.881Z,9.94
2023-04-01T06:45:21.870Z,9.90
2023-04-01T06:48:15.316Z,9.83
2023-04-01T06:51:35.086Z,9.77
2023-04-01T06:54:23.197Z,9.76
2023-04-01T06:57:16.124Z,9.68
2023-04-01T06:59:44.464Z,9.56
2023-04-01T07:02:14.872Z,9.51
2023-04-01T07:04:48.250Z,9.49
2023-04-01T07:07:20.782Z,9.53
2023-04-01T07:09:56.638Z,9.62
2023-04-01T07:12:35.158Z,9.70
2023-04-01T07:15:32.233Z,9.81
2023-04-01T07:18:04.952Z,9.93
2023-04-01T07:20:34.141Z,10.12
2023-04-01T07:23:05.058Z,10.28
2023-04-01T07:25:53.772Z,10.46
2023-04-01T07:28:33.278Z,10.51
2023-04-01T07:31:18.950Z,10.49
2023-04-01T07:33:54.378Z,10.56
2023-04-01T07:36:25.606Z,10.69
2023-04-01T07:38:54.169Z,10.83
2023-04-01T07:41:50.555Z,10.84
2023-04-01T07:44:25.625Z,10.80
2023-04-01T07:47:14.159Z,10.81
2023-04-01T07:49:42.675Z,10.85
2023-04-01T07:52:17.317Z,10.97
2023-04-01T07:54:48.706Z,11.07
2023-04-01T07:57:22.169Z,11.11
2023-04-01T08:00:05.881Z,11.11
2023-04-01T08:03:01.666Z,11.10
2023-04-01T08:05:31.783Z,11.11
2023-04-01T08:08:11.516Z,11.24
2023-04-01T08:11:23.310Z,11.39
2023-04-01T08:14:14.696Z,11.55
2023-04-01T08:17:06.576Z,11.68
2023-04-01T08:19:57.576Z,11.81
2023-04-01T08:22:32.251Z,11.93
2023-04-01T08:25:03.723Z,12.07
2023-04-01T08:27:35.654Z,12.22
2023-04-01T08:30:05.276Z,12.36
2023-04-01T08:32:38.327Z,12.51
2023-04-01T08:35:16.225Z,12.62
2023-04-01T08:37:46.471Z,12.72
2023-04-01T08:40:32.150Z,12.81
2023-04-01T08:43:20.172Z,12.86
2023-04-01T08:46:04.703Z,12.86
2023-04-01T08:48:33.439Z,12.90
2023-04-01T08:51:14.957Z,12.99
2023-04-01T08:53:43.065Z,13.04
2023-04-01T08:56:12.088Z,13.05
2023-04-01T08:58:46.370Z,12.99
2023-04-01T09:01:49.519Z,12.95
2023-04-01T09:04:55.035Z,12.99
2023-04-01T09:07:27.380Z,13.03
2023-04-01T09:10:17.359Z,13.12
2023-04-01T09:12:49.695Z,13.25
2023-04-01T09:15:58.257Z,13.37
2023-04-01T09:18:29.905Z,13.48
2023-04-01T09:20:58.692Z,13.63
2023-04-01T09:23:26.846Z,13.64
2023-04-01T09:26:15.475Z,13.62
2023-04-01T09:28:46.847Z,13.56
2023-04-01T09:31:14.984Z,13.54
2023-04-01T09:34:18.413Z,13.49
2023-04-01T09:37:01.637Z,13.26
2023-04-01T09:39:30.403Z,13.04
2023-04-01T09:41:58.644Z,12.87
2023-04-01T09:44:37.427Z,12.78
2023-04-01T09:47:12.424Z,12.80
2023-04-01T09:50:01.334Z,12.89
2023-04-01T09:52:36.198Z,13.00
2023-04-01T09:55:26.172Z,13.16
2023-04-01T09:58:13.655Z,13.28
2023-04-01T10:01:24.105Z,13.27
2023-04-01T10:04:04.943Z,13.35
2023-04-01T10:06:53.745Z,13.41
2023-04-01T10:09:28.220Z,13.45
2023-04-01T10:11:56.848Z,13.49
2023-04-01T10:14:44.055Z,13.58
2023-04-01T10:17:18.469Z,13.70
2023-04-01T10:20:03.558Z,13.75
2023-04-01T10:22:41.332Z,13.84
2023-04-01T10:25:12.910Z,13.90
2023-04-01T10:28:08.251Z,13.92
2023-04-01T10:31:04.076Z,13.91
2023-04-01T10:33:44.479Z,13.90
2023-04-01T10:36:31.691Z,13.92
2023-04-01T10:39:19.240Z,13.86
2023-04-01T10:41:58.248Z,13.94
2023-04-01T10:44:47.267Z,14.00
2023-04-01T10:47:36.682Z,13.99
2023-04-01T10:50:08.457Z,13.97
2023-04-01T10:52:55.293Z,13.97
2023-04-01T10:55:46.024Z,13.99
2023-04-01T10:58:51.326Z,13.98
2023-04-01T11:02:11.609Z,13.97
2023-04-01T11:05:22.547Z,13.97
2023-04-01T11:08:06.540Z,13.98
2023-04-01T11:10:36.593Z,13.92
2023-04-01T11:13:28.353Z,13.81
2023-04-01T11:16:07.201Z,13.80
2023-04-01T11:18:41.957Z,13.66
2023-04-01T11:21:20.106Z,13.60
2023-04-01T11:24:04.614Z,13.56
2023-04-01T11:26:47.350Z,13.54
2023-04-01T11:30:00.085Z,13.46
2023-04-01T11:32:43.694Z,13.32
2023-04-01T11:35:28.684Z,13.20
2023-04-01T11:38:08.223Z,13.12
2023-04-01T11:41:06.956Z,13.10
2023-04-01T11:43:58.899Z,13.06
2023-04-01T11:46:50.821Z,13.02
2023-04-01T11:49:22.843Z,12.97
2023-04-01T11:52:19.369Z,12.88
2023-04-01T11:54:47.524Z,12.89
2023-04-01T11:57:15.679Z,12.92
2023-04-01T11:59:46.579Z,12.95
2023-04-01T12:02:33.525Z,12.97
2023-04-01T12:05:20.976Z,13.03
2023-04-01T12:08:01.554Z,13.01
2023-04-01T12:10:33.894Z,12.94
2023-04-01T12:13:08.697Z,12.80
2023-04-01T12:15:43.333Z,12.68
2023-04-01T12:18:23.992Z,12.61
2023-04-01T12:20:57.833Z,12.61
2023-04-01T12:23:48.627Z,12.65
2023-04-01T12:26:29.924Z,12.63
2023-04-01T12:29:17.072Z,12.66
2023-04-01T12:31:48.474Z,12.72
2023-04-01T12:34:22.917Z,12.69
2023-04-01T12:37:06.441Z,12.70
2023-04-01T12:39:57.833Z,12.73
2023-04-01T12:42:28.762Z,12.77
2023-04-01T12:45:00.641Z,12.78
2023-04-01T12:47:29.560Z,12.82
2023-04-01T12:50:03.992Z,12.85
2023-04-01T12:52:39.386Z,12.85
2023-04-01T12:55:17.173Z,12.79
2023-04-01T12:57:57.882Z,12.68
2023-04-01T13:00:29.121Z,12.62
2023-04-01T13:03:16.617Z,12.58
2023-04-01T13:05:50.455Z,12.53
2023-04-01T13:08:23.195Z,12.46
2023-04-01T13:11:04.182Z,12.39
2023-04-01T13:13:32.519Z,12.33
2023-04-01T13:16:16.568Z,12.27
2023-04-01T13:18:57.162Z,12.23
2023-04-01T13:21:28.352Z,12.17
2023-04-01T13:24:17.178Z,12.09
2023-04-01T13:27:04.524Z,11.99
2023-04-01T13:29:34.213Z,11.92
2023-04-01T13:32:22.275Z,11.86
2023-04-01T13:35:07.222Z,11.79
2023-04-01T13:37:38.765Z,11.72
2023-04-01T13:40:22.561Z,11.63
2023-04-01T13:42:52.220Z,11.52
2023-04-01T13:45:39.765Z,11.47
2023-04-01T13:48:13.555Z,11.45
2023-04-01T13:50:43.162Z,11.45
2023-04-01T13:53:14.784Z,11.45
2023-04-01T13:55:46.842Z,11.43
2023-04-01T13:58:20.857Z,11.38
2023-04-01T14:00:53.696Z,11.35
2023-04-01T14:03:42.383Z,11.30
2023-04-01T14:06:30.538Z,11.22
2023-04-01T14:09:17.930Z,11.11
2023-04-01T14:11:49.209Z,10.99
2023-04-01T14:14:24.052Z,10.94
2023-04-01T14:16:57.356Z,10.89
2023-04-01T14:19:35.243Z,10.83
2023-04-01T14:22:22.002Z,10.74
2023-04-01T14:25:04.664Z,10.64
2023-04-01T14:27:51.963Z,10.57
2023-04-01T14:30:38.925Z,10.51
2023-04-01T14:33:27.481Z,10.47
2023-04-01T14:36:14.394Z,10.43
2023-04-01T14:39:07.731Z,10.41
2023-04-01T14:41:36.167Z,10.38
2023-04-01T14:44:16.741Z,10.38
2023-04-01T14:47:03.387Z,10.38
2023-04-01T14:49:33.590Z,10.40
2023-04-01T14:52:31.035Z,10.43
2023-04-01T14:54:59.169Z,10.45
2023-04-01T14:57:31.488Z,10.44
2023-04-01T15:00:16.681Z,10.44
2023-04-01T15:03:04.918Z,10.44
2023-04-01T15:05:39.742Z,10.43
2023-04-01T15:08:12.336Z,10.39
2023-04-01T15:10:43.771Z,10.35
2023-04-01T15:13:32.324Z,10.29
2023-04-01T15:16:04.514Z,10.21
2023-04-01T15:18:33.864Z,10.16
2023-04-01T15:21:08.931Z,10.12
2023-04-01T15:23:39.520Z,10.09
2023-04-01T15:26:07.895Z,10.10
2023-04-01T15:28:59.455Z,10.13
2023-04-01T15:31:30.882Z,10.16
2023-04-01T15:34:26.259Z,10.18
2023-04-01T15:36:57.602Z,10.17
2023-04-01T15:39:31.183Z,10.16
2023-04-01T15:42:21.717Z,10.13
2023-04-01T15:44:59.326Z,10.13
2023-04-01T15:47:27.893Z,10.15
2023-04-01T15:50:11.765Z,10.16
2023-04-01T15:52:50.723Z,10.15
2023-04-01T15:55:37.708Z,10.13
2023-04-01T15:58:08.662Z,10.10
2023-04-01T16:00:46.650Z,10.09
2023-04-01T16:03:42.777Z,10.07
2023-04-01T16:06:26.506Z,10.06
2023-04-01T16:09:04.694Z,10.03
2023-04-01T16:11:42.190Z,9.99
2023-04-01T16:14:25.054Z,9.95
2023-04-01T16:17:12.084Z,9.88
2023-04-01T16:19:53.261Z,9.83
2023-04-01T16:22:25.709Z,9.77
2023-04-01T16:25:13.432Z,9.74
2023-04-01T16:27:45.683Z,9.71
2023-04-01T16:30:34.087Z,9.69
2023-04-01T16:33:03.390Z,9.68
2023-04-01T16:35:38.313Z,9.67
2023-04-01T16:38:09.879Z,9.66
2023-04-01T16:40:38.327Z,9.67
2023-04-01T16:43:08.312Z,9.70
2023-04-01T16:45:36.808Z,9.72
2023-04-01T16:48:12.868Z,9.71
2023-04-01T16:50:41.763Z,9.73
2023-04-01T16:53:12.682Z,9.75
2023-04-01T16:55:41.181Z,9.74
2023-04-01T16:58:09.641Z,9.74
2023-04-01T17:00:39.621Z,9.72
2023-04-01T17:03:08.649Z,9.71
2023-04-01T17:05:40.474Z,9.70
2023-04-01T17:08:18.675Z,9.71
2023-04-01T17:11:20.197Z,9.72
2023-04-01T17:13:49.646Z,9.72
2023-04-01T17:16:36.749Z,9.73
2023-04-01T17:19:25.671Z,9.75
2023-04-01T17:22:03.188Z,9.74
2023-04-01T17:24:47.349Z,9.75
2023-04-01T17:27:24.518Z,9.78
2023-04-01T17:30:11.020Z,9.79
2023-04-01T17:32:43.225Z,9.79
2023-04-01T17:35:17.090Z,9.79
2023-04-01T17:37:52.805Z,9.78
2023-04-01T17:40:21.004Z,9.78
2023-04-01T17:42:58.961Z,9.80
2023-04-01T17:45:30.427Z,9.79
2023-04-01T17:47:59.412Z,9.79
2023-04-01T17:50:31.359Z,9.81
2023-04-01T17:53:18.859Z,9.82
2023-04-01T17:55:50.034Z,9.82
2023-04-01T17:58:19.287Z,9.84
2023-04-01T18:00:53.878Z,9.87
2023-04-01T18:03:33.701Z,9.88
2023-04-01T18:06:13.800Z,9.88
2023-04-01T18:09:06.160Z,9.88
2023-04-01T18:11:36.444Z,9.87
2023-04-01T18:14:24.384Z,9.85
2023-04-01T18:17:11.328Z,9.80
2023-04-01T18:19:39.674Z,9.71
2023-04-01T18:22:18.440Z,9.64
2023-04-01T18:24:46.786Z,9.58
2023-04-01T18:27:18.620Z,9.53
2023-04-01T18:29:53.506Z,9.47
2023-04-01T18:32:25.008Z,9.43
2023-04-01T18:34:53.205Z,9.39
2023-04-01T18:38:00.249Z,9.34
2023-04-01T18:40:29.004Z,9.32
2023-04-01T18:43:00.829Z,9.31
2023-04-01T18:45:31.652Z,9.31
2023-04-01T18:48:14.947Z,9.31
2023-04-01T18:50:49.646Z,9.33
2023-04-01T18:53:30.894Z,9.34
2023-04-01T18:56:00.853Z,9.37
2023-04-01T18:58:42.034Z,9.39
2023-04-01T19:01:13.390Z,9.43
2023-04-01T19:03:54.176Z,9.45
2023-04-01T19:06:24.579Z,9.45
2023-04-01T19:08:54.940Z,9.44
2023-04-01T19:11:41.807Z,9.43
2023-04-01T19:14:16.532Z,9.45
2023-04-01T19:16:47.819Z,9.48
2023-04-01T19:19:28.665Z,9.53
2023-04-01T19:21:57.595Z,9.56
2023-04-01T19:24:26.137Z,9.56
2023-04-01T19:27:07.212Z,9.58
2023-04-01T19:29:35.406Z,9.61
2023-04-01T19:32:23.388Z,9.63
2023-04-01T19:34:52.083Z,9.64
2023-04-01T19:37:50.422Z,9.64
2023-04-01T19:40:19.151Z,9.63
2023-04-01T19:42:48.100Z,9.63
2023-04-01T19:45:34.961Z,9.64
2023-04-01T19:48:04.798Z,9.66
2023-04-01T19:50:37.022Z,9.66
2023-04-01T19:53:08.587Z,9.67
2023-04-01T19:55:40.788Z,9.69
2023-04-01T19:58:15.245Z,9.70
2023-04-01T20:00:53.535Z,9.71
2023-04-01T20:03:34.467Z,9.70
2023-04-01T20:06:09.113Z,9.69
2023-04-01T20:08:51.096Z,9.65
2023-04-01T20:11:24.433Z,9.64
2023-04-01T20:14:02.234Z,9.60
2023-04-01T20:16:57.397Z,9.60
2023-04-01T20:19:47.163Z,9.59
2023-04-01T20:22:34.065Z,9.58
2023-04-01T20:25:06.486Z,9.54
2023-04-01T20:27:42.214Z,9.56
2023-04-01T20:30:10.867Z,9.59
2023-04-01T20:32:48.952Z,9.60
2023-04-01T20:35:20.227Z,9.64
2023-04-01T20:37:59.550Z,9.67
2023-04-01T20:40:38.927Z,9.68
2023-04-01T20:43:30.630Z,9.70
2023-04-01T20:46:17.798Z,9.72
2023-04-01T20:49:01.435Z,9.69
2023-04-01T20:51:30.668Z,9.68
2023-04-01T20:54:10.909Z,9.67
2023-04-01T20:56:45.381Z,9.69
2023-04-01T20:59:19.110Z,9.71
2023-04-01T21:02:06.160Z,9.70
2023-04-01T21:04:49.665Z,9.68
2023-04-01T21:07:18.060Z,9.65
2023-04-01T21:09:52.160Z,9.62
2023-04-01T21:12:27.686Z,9.59
2023-04-01T21:15:11.147Z,9.56
2023-04-01T21:17:58.914Z,9.55
2023-04-01T21:20:48.480Z,9.53
2023-04-01T21:23:16.981Z,9.50
2023-04-01T21:25:52.227Z,9.49
2023-04-01T21:28:39.344Z,9.47
2023-04-01T21:31:13.981Z,9.49
2023-04-01T21:34:15.499Z,9.51
2023-04-01T21:36:47.310Z,9.54
2023-04-01T21:39:21.404Z,9.56
2023-04-01T21:41:55.695Z,9.56
2023-04-01T21:44:42.807Z,9.57
2023-04-01T21:47:23.382Z,9.60
2023-04-01T21:49:52.001Z,9.61
2023-04-01T21:52:25.974Z,9.61
2023-04-01T21:54:59.973Z,9.62
2023-04-01T21:57:28.203Z,9.65
2023-04-01T22:00:12.519Z,9.65
2023-04-01T22:02:42.890Z,9.67
2023-04-01T22:05:20.198Z,9.68
2023-04-01T22:08:07.316Z,9.69
2023-04-01T22:10:35.593Z,9.70
2023-04-01T22:13:22.451Z,9.69
2023-04-01T22:15:58.616Z,9.68
2023-04-01T22:18:30.962Z,9.66
2023-04-01T22:21:06.428Z,9.62
2023-04-01T22:23:38.513Z,9.58
2023-04-01T22:26:24.951Z,9.52
2023-04-01T22:29:02.529Z,9.48
2023-04-01T22:31:34.260Z,9.45
2023-04-01T22:34:08.836Z,9.45
2023-04-01T22:36:43.417Z,9.47
2023-04-01T22:39:22.139Z,9.48
2023-04-01T22:42:08.594Z,9.52
2023-04-01T22:44:40.095Z,9.53
2023-04-01T22:47:16.383Z,9.55
2023-04-01T22:50:11.627Z,9.57
2023-04-01T22:52:45.382Z,9.59
2023-04-01T22:55:16.849Z,9.62
2023-04-01T22:57:54.593Z,9.64
2023-04-01T23:00:25.813Z,9.65
2023-04-01T23:03:14.108Z,9.64
2023-04-01T23:05:44.696Z,9.63
2023-04-01T23:08:27.873Z,9.63
2023-04-01T23:11:00.137Z,9.61
2023-04-01T23:13:31.222Z,9.56
2023-04-01T23:15:59.678Z,9.53
2023-04-01T23:18:29.377Z,9.48
2023-04-01T23:20:57.806Z,9.44
2023-04-01T23:23:32.473Z,9.41
2023-04-01T23:26:19.841Z,9.38
2023-04-01T23:28:52.365Z,9.34
2023-04-01T23:31:32.987Z,9.37
2023-04-01T23:34:02.152Z,9.40
2023-04-01T23:36:31.831Z,9.41
2023-04-01T23:39:01.200Z,9.41
2023-04-01T23:41:30.357Z,9.44
2023-04-01T23:44:24.859Z,9.45
2023-04-01T23:46:53.289Z,9.49
2023-04-01T23:49:41.418Z,9.52
2023-04-01T23:52:25.927Z,9.55
2023-04-01T23:54:56.357Z,9.57
2023-04-01T23:57:34.264Z,9.57
